メインページ
METAR-TAF:

METAR-TAF

空港 :

東京 / 羽田国際空港, 日本

東京国際空港

緯度: 35-33N, 経度: 139-47E, 海抜: 5m

現時点の気象観測

当レポートは27分前の23:30(UTC)に作成
南/南東の風 6kt、東/南東からの間で変化する
気温 22°C
湿度 73%
気圧 1014 hPa
視程10km以上
高度2500ftの雲はほとんどない
千切れ雲あり

METAR: RJTT 282330Z 15006KT 110V180 9999 FEW025 BKN/// 22/17 Q1014 NOSIG

時間: 08:57 (23:57 UTC)

予報

当レポートは51分前の23:06(UTC)に作成
予報は29日の 00時(UTC)から 30日の 06時(UTC)まで有効
の風 10kt
視程10km以上
高度3000ftの雲はほとんどない
29日の 04時(UTC)から 29日の 06時(UTC)まで徐々に
の風 20kt
29日の 18時(UTC)から 29日の 21時(UTC)まで徐々に
南西の風 8kt

TAF: RJTT 282306Z 2900/3006 18010KT 9999 FEW030 BECMG 2904/2906 18020KT BECMG 2918/2921 22008KT

4,000以上の空港の気象観測と天気予報(METAR報とTAF報)

利用可能な観測所は地図上に黄色い丸と赤い丸で示す。

丸の上にカーソルを重ねると観測所名を参照できる。

次にクリックすると気象観測と天気予報を参照できる。

マップの切り替え:黒色「×」印の緑ボタンをクリックして拡大、「-」印の緑ボタンをクリックして縮小、緑色の三角印をクリックして隣りの地図に切り替え


METAR-TAF: